Avel Braz — FAB3662 — position and weather

sailwx.info

Track history (hours):
 
Tides and Currents Weather Stations Pressure Air Temp Water Temp Dewpoint Dewpoint Depression Visibility Wind Speed Wind Dir Waves Ship Positions

Avel Braz

Last reported at 2017-Aug-28 20:36 UTC. Time now 2017-Sep-21 08:58 UTC.
Position N 48°23' W 004°29'.
Warning: this ship's position is 23 days out of date.

Length 12 m.

Type: Sailing vessel. MMSI: 227196050.

Date/timePositionNaut miles runAvg speedWind from/ knotsBaromVisibWave heightAir tempDewpointWater temp
2017-Aug-28 20:36N 48°23' W 004°29'0 0.0
2017-Aug-28 20:30N 48°23' W 004°29'0 0.0
2017-Aug-28 20:00N 48°23' W 004°29'0 0.0
2017-Aug-28 19:30N 48°23' W 004°29'0 0.0
2017-Aug-28 19:00N 48°23' W 004°29'0 0.0
2017-Aug-28 18:30N 48°23' W 004°29'0 0.0
2017-Aug-28 17:58N 48°23' W 004°29'0 0.0
2017-Aug-28 17:30N 48°23' W 004°29'0 0.0
2017-Aug-28 16:59N 48°23' W 004°29'0 0.0
2017-Aug-28 16:29N 48°23' W 004°29'0 0.0
2017-Aug-28 15:59N 48°23' W 004°29'0 0.0
2017-Aug-28 15:29N 48°23' W 004°29'0 0.0
2017-Aug-28 14:59N 48°23' W 004°29'0 0.7
2017-Aug-28 14:30N 48°22' W 004°30'1 2.9
2017-Aug-28 14:00N 48°22' W 004°27'2 4.3
2017-Aug-28 13:30N 48°21' W 004°30'2 3.1
2017-Aug-28 13:00N 48°21' W 004°32'2 3.4
2017-Aug-28 12:30N 48°20' W 004°35'2 3.4
2017-Aug-28 12:00N 48°19' W 004°37'1 2.7
2017-Aug-28 11:30N 48°18' W 004°39'1 1.9
2017-Aug-28 11:01N 48°18' W 004°40'1 2.5
2017-Aug-28 10:30N 48°17' W 004°39'2 3.4
2017-Aug-28 10:00N 48°15' W 004°38'5 3.8
2017-Aug-28 08:43N 48°11' W 004°34'2 3.0
2017-Aug-28 07:58N 48°10' W 004°31'2 1.6
2017-Aug-28 06:53N 48°12' W 004°31'0 0.0
2017-Aug-28 05:58N 48°12' W 004°31'0 0.0
2017-Aug-28 04:33N 48°12' W 004°31'0 0.0
2017-Aug-27 23:39N 48°12' W 004°31'0 0.0
2017-Aug-27 22:53N 48°12' W 004°31'0 0.0
2017-Aug-27 21:43N 48°12' W 004°31'0 0.0
2017-Aug-27 19:58N 48°12' W 004°31'0 0.0
2017-Aug-27 18:48N 48°12' W 004°31'0 0.0
2017-Aug-27 16:43N 48°12' W 004°31'0 0.0
2017-Aug-27 14:48N 48°12' W 004°31'0 0.0
2017-Aug-27 12:59N 48°12' W 004°31'0 0.0
2017-Aug-27 11:48N 48°12' W 004°31'0 0.0
2017-Aug-27 10:58N 48°12' W 004°31'0 0.1
2017-Aug-27 09:53N 48°12' W 004°31'1 3.1
2017-Aug-27 09:25N 48°12' W 004°29'2 3.4
2017-Aug-27 08:58N 48°14' W 004°29'2 2.2
2017-Aug-27 07:58N 48°12' W 004°31'2 1.5
2017-Aug-27 06:43N 48°10' W 004°32'0 0.0
2017-Aug-26 23:48N 48°10' W 004°32'0 0.0
2017-Aug-26 22:58N 48°10' W 004°32'0 0.0
2017-Aug-26 17:53N 48°10' W 004°32'6 1.5
2017-Aug-26 13:58N 48°07' W 004°39'57 1.8
2017-Aug-25 06:10N 47°37' W 003°26'1 4.5
2017-Aug-25 06:00N 47°37' W 003°25'1 1.4
2017-Aug-25 05:25N 47°38' W 003°25'0 0.0
2017-Aug-25 04:59N 47°38' W 003°25'0 0.0
2017-Aug-25 04:23N 47°38' W 003°25'0 0.0
2017-Aug-25 03:12N 47°38' W 003°25'0 0.0
2017-Aug-25 02:45N 47°38' W 003°25'0 0.0
2017-Aug-25 02:30N 47°38' W 003°25'0 0.0
2017-Aug-25 01:46N 47°38' W 003°25'0 0.0
2017-Aug-25 01:24N 47°38' W 003°25'0 0.0
2017-Aug-25 01:00N 47°38' W 003°25'0 0.0
2017-Aug-25 00:30N 47°38' W 003°25'0 0.0
2017-Aug-24 23:55N 47°38' W 003°25'0 0.0
2017-Aug-24 23:30N 47°38' W 003°25'0 0.0
2017-Aug-24 22:58N 47°38' W 003°25'0 0.0
2017-Aug-24 22:25N 47°38' W 003°25'0 0.0
2017-Aug-24 20:52N 47°38' W 003°25'0 0.0
2017-Aug-24 20:28N 47°38' W 003°25'0 0.0
2017-Aug-24 19:59N 47°38' W 003°25'0 0.0
2017-Aug-24 18:38N 47°38' W 003°25'0 0.0
2017-Aug-24 18:26N 47°38' W 003°25'0 0.0
2017-Aug-24 17:58N 47°38' W 003°25'0 0.0
2017-Aug-24 16:47N 47°38' W 003°25'0 0.0
2017-Aug-24 16:26N 47°38' W 003°25'0 0.0
2017-Aug-24 15:55N 47°38' W 003°25'0 0.0
2017-Aug-24 15:28N 47°38' W 003°25'0 0.0
2017-Aug-24 14:43N 47°38' W 003°25'0 0.0
2017-Aug-24 14:30N 47°38' W 003°25'0 0.0
2017-Aug-24 13:56N 47°38' W 003°25'0 0.5
2017-Aug-24 13:24N 47°38' W 003°24'2 6.3
2017-Aug-24 13:00N 47°35' W 003°24'3 6.3
2017-Aug-24 12:30N 47°32' W 003°24'3 5.8
2017-Aug-24 12:00N 47°29' W 003°24'19 0.5
2017-Aug-22 17:31N 47°22' W 002°58'0 3.7
2017-Aug-22 17:25N 47°22' W 002°58'  
2017-Aug-19 14:33N 47°26' W 003°16'4 7.4
2017-Aug-19 14:00N 47°30' W 003°19'4 7.3
2017-Aug-19 13:29N 47°33' W 003°21'4 7.6
2017-Aug-19 13:00N 47°36' W 003°22'3 5.7
2017-Aug-19 12:30N 47°39' W 003°25'  
Track history (hours):
 
Tides and Currents Weather Stations Pressure Air Temp Water Temp Dewpoint Dewpoint Depression Visibility Wind Speed Wind Dir Waves Ship Positions

Avel Braz

Last reported at 2017-Aug-28 20:36 UTC. Time now 2017-Sep-21 08:58 UTC.
Position N 48°23' W 004°29'.
Warning: this ship's position is 23 days out of date.

Length 12 m.

Type: Sailing vessel. MMSI: 227196050.

Date/timePositionNaut miles runAvg speedWind from/ knotsBaromVisibWave heightAir tempDewpointWater temp
2017-Aug-28 20:36N 48°23' W 004°29'0 0.0
2017-Aug-28 20:30N 48°23' W 004°29'0 0.0
2017-Aug-28 20:00N 48°23' W 004°29'0 0.0
2017-Aug-28 19:30N 48°23' W 004°29'0 0.0
2017-Aug-28 19:00N 48°23' W 004°29'0 0.0
2017-Aug-28 18:30N 48°23' W 004°29'0 0.0
2017-Aug-28 17:58N 48°23' W 004°29'0 0.0
2017-Aug-28 17:30N 48°23' W 004°29'0 0.0
2017-Aug-28 16:59N 48°23' W 004°29'0 0.0
2017-Aug-28 16:29N 48°23' W 004°29'0 0.0
2017-Aug-28 15:59N 48°23' W 004°29'0 0.0
2017-Aug-28 15:29N 48°23' W 004°29'0 0.0
2017-Aug-28 14:59N 48°23' W 004°29'0 0.7
2017-Aug-28 14:30N 48°22' W 004°30'1 2.9
2017-Aug-28 14:00N 48°22' W 004°27'2 4.3
2017-Aug-28 13:30N 48°21' W 004°30'2 3.1
2017-Aug-28 13:00N 48°21' W 004°32'2 3.4
2017-Aug-28 12:30N 48°20' W 004°35'2 3.4
2017-Aug-28 12:00N 48°19' W 004°37'1 2.7
2017-Aug-28 11:30N 48°18' W 004°39'1 1.9
2017-Aug-28 11:01N 48°18' W 004°40'1 2.5
2017-Aug-28 10:30N 48°17' W 004°39'2 3.4
2017-Aug-28 10:00N 48°15' W 004°38'5 3.8
2017-Aug-28 08:43N 48°11' W 004°34'2 3.0
2017-Aug-28 07:58N 48°10' W 004°31'2 1.6
2017-Aug-28 06:53N 48°12' W 004°31'0 0.0
2017-Aug-28 05:58N 48°12' W 004°31'0 0.0
2017-Aug-28 04:33N 48°12' W 004°31'0 0.0
2017-Aug-27 23:39N 48°12' W 004°31'0 0.0
2017-Aug-27 22:53N 48°12' W 004°31'0 0.0
2017-Aug-27 21:43N 48°12' W 004°31'0 0.0
2017-Aug-27 19:58N 48°12' W 004°31'0 0.0
2017-Aug-27 18:48N 48°12' W 004°31'0 0.0
2017-Aug-27 16:43N 48°12' W 004°31'0 0.0
2017-Aug-27 14:48N 48°12' W 004°31'0 0.0
2017-Aug-27 12:59N 48°12' W 004°31'0 0.0
2017-Aug-27 11:48N 48°12' W 004°31'0 0.0
2017-Aug-27 10:58N 48°12' W 004°31'0 0.1
2017-Aug-27 09:53N 48°12' W 004°31'1 3.1
2017-Aug-27 09:25N 48°12' W 004°29'2 3.4
2017-Aug-27 08:58N 48°14' W 004°29'2 2.2
2017-Aug-27 07:58N 48°12' W 004°31'2 1.5
2017-Aug-27 06:43N 48°10' W 004°32'0 0.0
2017-Aug-26 23:48N 48°10' W 004°32'0 0.0
2017-Aug-26 22:58N 48°10' W 004°32'0 0.0
2017-Aug-26 17:53N 48°10' W 004°32'6 1.5
2017-Aug-26 13:58N 48°07' W 004°39'57 1.8
2017-Aug-25 06:10N 47°37' W 003°26'1 4.5
2017-Aug-25 06:00N 47°37' W 003°25'1 1.4
2017-Aug-25 05:25N 47°38' W 003°25'0 0.0
2017-Aug-25 04:59N 47°38' W 003°25'0 0.0
2017-Aug-25 04:23N 47°38' W 003°25'0 0.0
2017-Aug-25 03:12N 47°38' W 003°25'0 0.0
2017-Aug-25 02:45N 47°38' W 003°25'0 0.0
2017-Aug-25 02:30N 47°38' W 003°25'0 0.0
2017-Aug-25 01:46N 47°38' W 003°25'0 0.0
2017-Aug-25 01:24N 47°38' W 003°25'0 0.0
2017-Aug-25 01:00N 47°38' W 003°25'0 0.0
2017-Aug-25 00:30N 47°38' W 003°25'0 0.0
2017-Aug-24 23:55N 47°38' W 003°25'0 0.0
2017-Aug-24 23:30N 47°38' W 003°25'0 0.0
2017-Aug-24 22:58N 47°38' W 003°25'0 0.0
2017-Aug-24 22:25N 47°38' W 003°25'0 0.0
2017-Aug-24 20:52N 47°38' W 003°25'0 0.0
2017-Aug-24 20:28N 47°38' W 003°25'0 0.0
2017-Aug-24 19:59N 47°38' W 003°25'0 0.0
2017-Aug-24 18:38N 47°38' W 003°25'0 0.0
2017-Aug-24 18:26N 47°38' W 003°25'0 0.0
2017-Aug-24 17:58N 47°38' W 003°25'0 0.0
2017-Aug-24 16:47N 47°38' W 003°25'0 0.0
2017-Aug-24 16:26N 47°38' W 003°25'0 0.0
2017-Aug-24 15:55N 47°38' W 003°25'0 0.0
2017-Aug-24 15:28N 47°38' W 003°25'0 0.0
2017-Aug-24 14:43N 47°38' W 003°25'0 0.0
2017-Aug-24 14:30N 47°38' W 003°25'0 0.0
2017-Aug-24 13:56N 47°38' W 003°25'0 0.5
2017-Aug-24 13:24N 47°38' W 003°24'2 6.3
2017-Aug-24 13:00N 47°35' W 003°24'3 6.3
2017-Aug-24 12:30N 47°32' W 003°24'3 5.8
2017-Aug-24 12:00N 47°29' W 003°24'19 0.5
2017-Aug-22 17:31N 47°22' W 002°58'0 3.7
2017-Aug-22 17:25N 47°22' W 002°58'  
2017-Aug-19 14:33N 47°26' W 003°16'4 7.4
2017-Aug-19 14:00N 47°30' W 003°19'4 7.3
2017-Aug-19 13:29N 47°33' W 003°21'4 7.6
2017-Aug-19 13:00N 47°36' W 003°22'3 5.7
2017-Aug-19 12:30N 47°39' W 003°25'  

Dump ship's entire track history